Time;durP1;ratioP1;P1;durP2;ratioP2;P2;SDS_P1;SDS_P2;PMS_P1;PMS_P2;Temp;Humidity;BMP_temperature;BMP_pressure;BME280_temperature;BME280_humidity;BME280_pressure;Samples;Min_cycle;Max_cycle;Signal;HPM_P1;HPM_P2
2022/04/12 00:00:41;;;;;;;9.67;5.40;;;;;;;7.79;100.00;95148.44;5094273;28;20241;-63
2022/04/12 00:03:07;;;;;;;7.93;4.90;;;;;;;7.61;100.00;95153.13;5094363;28;20184;-60
2022/04/12 00:05:37;;;;;;;6.90;5.20;;;;;;;7.54;100.00;95150.41;5094074;28;20188;-61
2022/04/12 00:08:05;;;;;;;5.77;4.83;;;;;;;7.59;100.00;95136.44;5094158;28;20188;-60
2022/04/12 00:10:31;;;;;;;7.63;5.10;;;;;;;7.51;100.00;95137.63;5093789;28;20227;-60
2022/04/12 00:12:58;;;;;;;7.27;5.50;;;;;;;7.57;100.00;95138.78;5094098;28;20210;-60
2022/04/12 00:15:24;;;;;;;6.87;4.90;;;;;;;7.49;100.00;95139.94;5095679;28;20188;-59
2022/04/12 00:20:33;;;;;;;7.23;5.23;;;;;;;7.42;100.00;95139.16;5115778;28;20252;-58
2022/04/12 00:22:59;;;;;;;8.27;5.20;;;;;;;7.39;100.00;95129.09;5097114;28;20196;-58
2022/04/12 00:25:26;;;;;;;8.30;5.30;;;;;;;7.46;100.00;95139.97;5097431;28;20200;-58
2022/04/12 00:27:53;;;;;;;7.10;4.77;;;;;;;7.37;100.00;95142.28;5097604;28;20198;-58
2022/04/12 00:30:20;;;;;;;5.80;5.10;;;;;;;7.34;100.00;95138.41;5097156;28;20187;-56
2022/04/12 00:32:46;;;;;;;6.47;4.50;;;;;;;7.36;100.00;95135.31;5097675;28;20203;-59
2022/04/12 00:35:12;;;;;;;6.27;5.37;;;;;;;7.49;100.00;95142.66;5097492;28;20188;-60
2022/04/12 00:37:37;;;;;;;7.40;5.10;;;;;;;7.42;100.00;95145.38;5097120;28;20192;-60
2022/04/12 00:40:04;;;;;;;6.73;5.03;;;;;;;7.43;100.00;95140.72;5097104;28;20184;-60
2022/04/12 00:42:30;;;;;;;6.60;5.30;;;;;;;7.46;100.00;95143.44;5097068;28;20222;-59
2022/04/12 00:44:56;;;;;;;7.07;5.07;;;;;;;7.49;100.00;95156.25;5096897;28;20233;-60
2022/04/12 00:47:21;;;;;;;7.13;5.23;;;;;;;7.51;100.00;95148.50;5096865;28;20215;-60
2022/04/12 00:49:46;;;;;;;6.20;4.80;;;;;;;7.48;100.00;95146.56;5096989;28;20190;-59
2022/04/12 00:52:12;;;;;;;7.27;5.50;;;;;;;7.48;100.00;95145.75;5097098;28;20216;-57
2022/04/12 00:54:38;;;;;;;6.80;4.87;;;;;;;7.53;100.00;95138.00;5096990;28;20188;-55
2022/04/12 00:57:05;;;;;;;8.80;4.97;;;;;;;7.47;100.00;95141.50;5096858;28;20172;-57
2022/04/12 00:59:32;;;;;;;7.97;4.87;;;;;;;7.36;100.00;95135.31;5097003;28;20187;-55
2022/04/12 01:01:57;;;;;;;6.40;5.10;;;;;;;7.37;100.00;95132.19;5097005;28;20190;-57
2022/04/12 01:04:23;;;;;;;7.23;5.27;;;;;;;7.39;100.00;95135.28;5097044;28;20188;-57
2022/04/12 01:06:49;;;;;;;6.20;5.30;;;;;;;7.40;100.00;95142.28;5096821;28;20192;-57
2022/04/12 01:09:14;;;;;;;7.10;5.50;;;;;;;7.37;100.00;95132.19;5096840;28;20183;-61
2022/04/12 01:11:40;;;;;;;6.87;5.77;;;;;;;7.24;100.00;95128.31;5096734;28;20204;-58
2022/04/12 01:14:07;;;;;;;7.67;5.47;;;;;;;7.21;100.00;95118.22;5096619;28;20228;-58
2022/04/12 01:16:32;;;;;;;7.83;5.30;;;;;;;7.23;100.00;95115.91;5096504;28;20233;-57
2022/04/12 01:18:58;;;;;;;7.07;5.17;;;;;;;7.05;100.00;95120.53;5096580;28;20219;-57
2022/04/12 01:21:24;;;;;;;6.80;5.30;;;;;;;7.14;100.00;95120.94;5096470;28;20190;-58
2022/04/12 01:24:03;;;;;;;7.53;5.47;;;;;;;7.00;100.00;95118.22;5096161;28;20188;-57
2022/04/12 01:26:29;;;;;;;7.50;5.63;;;;;;;7.08;100.00;95119.78;5096118;28;20211;-55
2022/04/12 01:28:54;;;;;;;6.83;4.97;;;;;;;7.08;100.00;95119.78;5096475;28;20188;-61
2022/04/12 01:31:20;;;;;;;8.20;4.93;;;;;;;7.07;100.00;95126.38;5096598;28;20187;-58
2022/04/12 01:33:45;;;;;;;7.67;5.40;;;;;;;7.14;100.00;95118.22;5096355;28;20195;-58
2022/04/12 01:36:11;;;;;;;9.43;5.43;;;;;;;7.05;100.00;95115.13;5096423;28;20184;-58
2022/04/12 01:38:36;;;;;;;8.53;5.40;;;;;;;7.04;100.00;95115.50;5096737;28;20180;-57
2022/04/12 01:41:02;;;;;;;9.20;5.23;;;;;;;7.04;100.00;95121.72;5096281;28;20205;-56
2022/04/12 01:43:28;;;;;;;7.77;5.33;;;;;;;6.96;100.00;95116.66;5096211;28;20187;-58
2022/04/12 01:45:53;;;;;;;6.20;5.40;;;;;;;7.12;100.00;95115.13;5096196;28;20188;-58
2022/04/12 01:48:19;;;;;;;7.33;5.30;;;;;;;7.04;100.00;95119.00;5096317;28;20266;-60
2022/04/12 01:50:44;;;;;;;9.77;5.60;;;;;;;7.05;100.00;95109.69;5095944;28;20597;-60
2022/04/12 01:53:09;;;;;;;7.27;5.40;;;;;;;6.81;100.00;95107.72;5095820;28;20302;-60
2022/04/12 01:55:34;;;;;;;8.60;6.23;;;;;;;6.87;100.00;95103.47;5095886;28;20176;-59
2022/04/12 01:58:00;;;;;;;9.83;6.13;;;;;;;6.88;100.00;95105.00;5095899;28;20184;-59
2022/04/12 02:00:26;;;;;;;7.90;5.47;;;;;;;6.84;100.00;95109.66;5096151;28;20236;-60
2022/04/12 02:02:51;;;;;;;7.50;5.30;;;;;;;6.78;100.00;95105.81;5096141;28;20209;-61
2022/04/12 02:05:16;;;;;;;7.47;5.40;;;;;;;6.78;100.00;95101.13;5096276;28;20191;-59
2022/04/12 02:07:45;;;;;;;7.27;4.97;;;;;;;6.78;100.00;95103.09;5095999;28;20183;-58
2022/04/12 02:10:11;;;;;;;7.43;5.70;;;;;;;6.69;100.00;95102.66;5095797;28;20188;-58
2022/04/12 02:12:36;;;;;;;6.90;5.43;;;;;;;6.60;100.00;95099.56;5095649;28;20264;-58
2022/04/12 02:15:02;;;;;;;6.50;5.10;;;;;;;6.59;100.00;95101.50;5095727;28;20183;-59
2022/04/12 02:17:28;;;;;;;6.00;5.10;;;;;;;6.66;100.00;95103.44;5095511;28;20188;-58
2022/04/12 02:19:53;;;;;;;6.67;5.63;;;;;;;6.66;100.00;95103.44;5095569;28;20192;-58
2022/04/12 02:22:19;;;;;;;6.23;5.07;;;;;;;6.61;100.00;95103.81;5095591;28;20188;-59
2022/04/12 02:24:44;;;;;;;7.87;5.23;;;;;;;6.57;100.00;95108.47;5095779;28;20200;-61
2022/04/12 02:27:09;;;;;;;5.27;4.57;;;;;;;6.40;100.00;95111.91;5096055;28;20199;-59
2022/04/12 02:29:35;;;;;;;8.23;5.47;;;;;;;6.52;100.00;95098.00;5095849;28;20299;-59
2022/04/12 02:32:00;;;;;;;6.27;5.07;;;;;;;6.52;100.00;95103.44;5095150;28;20234;-58
2022/04/12 02:34:26;;;;;;;12.23;5.30;;;;;;;6.56;100.00;95099.53;5095772;28;20191;-58
2022/04/12 02:36:51;;;;;;;6.60;5.17;;;;;;;6.59;100.00;95104.19;5094854;28;20194;-59
2022/04/12 02:39:16;;;;;;;6.27;5.00;;;;;;;6.64;100.00;95100.34;5094940;28;20220;-58
2022/04/12 02:41:42;;;;;;;6.93;4.47;;;;;;;6.59;100.00;95108.84;5095438;28;20255;-61
2022/04/12 02:44:07;;;;;;;5.70;4.80;;;;;;;6.55;100.00;95097.22;5095204;28;20208;-59
2022/04/12 02:46:32;;;;;;;5.30;4.57;;;;;;;6.38;100.00;95101.44;5095290;28;20183;-60
2022/04/12 02:48:58;;;;;;;6.87;5.07;;;;;;;6.37;100.00;95108.03;5095483;28;20243;-60
2022/04/12 02:51:23;;;;;;;6.27;4.77;;;;;;;6.54;100.00;95107.31;5095193;28;20244;-60
2022/04/12 02:53:48;;;;;;;6.17;4.60;;;;;;;6.24;100.00;95114.19;5094991;28;20288;-60
2022/04/12 02:56:14;;;;;;;7.23;4.70;;;;;;;6.21;100.00;95112.22;5094863;28;20194;-60
2022/04/12 02:58:39;;;;;;;7.13;4.73;;;;;;;6.33;100.00;95106.44;5095322;28;20271;-60
2022/04/12 03:01:05;;;;;;;5.83;4.87;;;;;;;6.34;100.00;95110.72;5095227;28;20203;-58
2022/04/12 03:03:30;;;;;;;6.07;4.90;;;;;;;6.36;100.00;95111.13;5095228;28;20176;-61
2022/04/12 03:05:56;;;;;;;5.73;4.43;;;;;;;6.39;100.00;95104.94;5094642;28;20195;-61
2022/04/12 03:08:22;;;;;;;6.63;4.87;;;;;;;6.40;100.00;95106.47;5095202;28;20240;-61
2022/04/12 03:10:48;;;;;;;6.50;4.83;;;;;;;6.48;100.00;95108.03;5094896;28;20203;-61
2022/04/12 03:13:13;;;;;;;5.20;4.70;;;;;;;6.39;100.00;95099.50;5094858;28;20288;-60
2022/04/12 03:15:38;;;;;;;5.53;4.40;;;;;;;6.34;100.00;95095.22;5094790;28;20184;-60
2022/04/12 03:18:04;;;;;;;5.13;4.63;;;;;;;6.34;100.00;95103.34;5094654;28;20179;-58
2022/04/12 03:20:29;;;;;;;8.67;4.70;;;;;;;6.40;100.00;95090.22;5094729;28;20272;-61
2022/04/12 03:22:55;;;;;;;6.80;4.27;;;;;;;6.38;100.00;95104.16;5094610;28;20183;-61
2022/04/12 03:25:20;;;;;;;9.40;4.50;;;;;;;6.35;100.00;95093.31;5094403;28;20208;-62
2022/04/12 03:27:46;;;;;;;10.40;5.53;;;;;;;6.31;100.00;95095.22;5094754;28;20180;-61
2022/04/12 03:30:11;;;;;;;6.10;4.70;;;;;;;6.34;100.00;95097.19;5094759;28;20184;-61
2022/04/12 03:32:37;;;;;;;9.33;4.87;;;;;;;6.33;100.00;95095.59;5094680;28;20206;-61
2022/04/12 03:35:02;;;;;;;6.63;4.40;;;;;;;6.32;100.00;95084.00;5094589;28;20194;-61
2022/04/12 03:37:28;;;;;;;5.13;4.27;;;;;;;6.22;100.00;95089.38;5094528;28;20179;-59
2022/04/12 03:39:53;;;;;;;10.43;6.77;;;;;;;6.20;100.00;95076.19;5094586;28;20190;-58
2022/04/12 03:42:18;;;;;;;7.37;4.70;;;;;;;6.20;100.00;95072.72;5094984;28;20184;-58
2022/04/12 03:44:47;;;;;;;6.37;4.60;;;;;;;6.21;100.00;95075.06;5094643;28;20212;-60
2022/04/12 03:47:13;;;;;;;6.67;4.43;;;;;;;6.17;100.00;95081.63;5094584;28;20194;-59
2022/04/12 03:49:38;;;;;;;6.00;4.50;;;;;;;6.11;100.00;95083.94;5096584;28;20184;-59
2022/04/12 03:52:04;;;;;;;10.93;5.27;;;;;;;6.15;100.00;95083.94;5097576;28;20499;-59
2022/04/12 03:54:29;;;;;;;7.30;4.47;;;;;;;6.16;100.00;95080.06;5097704;28;20195;-60
2022/04/12 03:56:55;;;;;;;4.63;4.20;;;;;;;6.07;100.00;95093.19;5097807;28;20184;-60
2022/04/12 03:59:21;;;;;;;4.87;4.37;;;;;;;6.06;100.00;95091.66;5097883;28;20207;-56
2022/04/12 04:01:46;;;;;;;8.27;4.30;;;;;;;6.05;100.00;95098.25;5098002;28;20213;-58
2022/04/12 04:04:12;;;;;;;6.57;4.13;;;;;;;6.12;100.00;95090.13;5097896;28;20180;-58
2022/04/12 04:06:37;;;;;;;6.53;4.10;;;;;;;5.97;100.00;95099.34;5097748;28;20211;-58
2022/04/12 04:09:03;;;;;;;4.77;3.77;;;;;;;6.03;100.00;95105.97;5097952;28;20176;-58
2022/04/12 04:11:28;;;;;;;6.13;4.23;;;;;;;5.94;100.00;95090.03;5097751;28;20188;-58
2022/04/12 04:13:53;;;;;;;4.47;4.00;;;;;;;5.99;100.00;95099.75;5097627;28;20275;-59
2022/04/12 04:16:19;;;;;;;5.63;3.93;;;;;;;6.00;100.00;95101.28;5097473;28;20180;-57
2022/04/12 04:18:44;;;;;;;7.80;4.10;;;;;;;6.03;100.00;95093.19;5097425;28;20325;-58
2022/04/12 04:21:09;;;;;;;6.43;3.80;;;;;;;6.03;100.00;95097.81;5097359;28;20187;-58
2022/04/12 04:23:35;;;;;;;6.00;4.13;;;;;;;6.11;100.00;95100.19;5097517;28;20232;-58
2022/04/12 04:26:00;;;;;;;6.33;3.83;;;;;;;6.06;100.00;95097.06;5097441;28;20294;-58
2022/04/12 04:28:29;;;;;;;5.47;3.80;;;;;;;6.14;100.00;95104.06;5097014;28;20241;-58
2022/04/12 04:30:55;;;;;;;6.13;3.90;;;;;;;6.09;100.00;95101.72;5097217;28;20718;-59
2022/04/12 04:33:20;;;;;;;4.63;3.67;;;;;;;5.92;100.00;95102.44;5096955;28;20208;-59
2022/04/12 04:35:47;;;;;;;6.93;3.83;;;;;;;5.68;100.00;95097.66;5097477;28;20212;-60
2022/04/12 04:38:12;;;;;;;6.53;3.97;;;;;;;5.83;100.00;95099.31;5097049;28;20187;-59
2022/04/12 04:40:38;;;;;;;4.43;3.70;;;;;;;6.02;100.00;95107.88;5096962;28;20194;-58
2022/04/12 04:43:04;;;;;;;6.07;3.67;;;;;;;6.09;100.00;95107.91;5096989;28;20188;-58
2022/04/12 04:45:29;;;;;;;7.90;4.60;;;;;;;6.09;100.00;95090.91;5097017;28;20188;-58
2022/04/12 04:47:57;;;;;;;6.57;4.30;;;;;;;6.32;100.00;95094.06;5096817;28;20191;-58
2022/04/12 04:50:24;;;;;;;6.77;4.40;;;;;;;6.55;100.00;95087.16;5096958;28;20334;-60
2022/04/12 04:52:49;;;;;;;6.53;4.07;;;;;;;6.89;100.00;95087.59;5097000;28;20280;-61
2022/04/12 04:55:16;;;;;;;7.70;4.57;;;;;;;7.58;100.00;95085.97;5096845;28;20443;-58
2022/04/12 04:57:43;;;;;;;5.03;3.90;;;;;;;8.13;100.00;95097.09;5097060;28;20192;-60
2022/04/12 05:00:16;;;;;;;10.57;4.53;;;;;;;8.21;100.00;95104.03;5096416;28;20263;-61
2022/04/12 05:02:46;;;;;;;5.67;3.80;;;;;;;8.50;100.00;95105.50;5111392;28;20341;-61
2022/04/12 05:05:12;;;;;;;7.37;4.50;;;;;;;9.16;100.00;95104.31;5096417;28;20192;-63
2022/04/12 05:07:41;;;;;;;9.00;3.93;;;;;;;9.95;100.00;95107.47;5096809;28;20220;-60
2022/04/12 05:10:08;;;;;;;5.80;4.07;;;;;;;10.63;100.00;95118.41;5096684;28;20260;-60
2022/04/12 05:12:34;;;;;;;7.53;4.60;;;;;;;11.03;96.05;95120.97;5096630;28;20206;-60
2022/04/12 05:14:59;;;;;;;6.67;4.27;;;;;;;11.05;95.16;95123.28;5096524;28;20273;-61
2022/04/12 05:17:26;;;;;;;7.63;4.30;;;;;;;10.94;95.42;95130.84;5096526;28;20243;-61
2022/04/12 05:19:52;;;;;;;6.30;4.40;;;;;;;11.11;93.80;95129.84;5096176;28;20185;-61
2022/04/12 05:22:17;;;;;;;6.87;4.93;;;;;;;11.10;92.94;95131.00;5096218;28;20282;-62
2022/04/12 05:24:43;;;;;;;9.97;5.57;;;;;;;11.38;90.94;95120.44;5096109;28;20218;-61
2022/04/12 05:27:09;;;;;;;9.00;5.13;;;;;;;11.54;91.58;95117.06;5096404;28;20184;-58
2022/04/12 05:29:34;;;;;;;11.43;6.07;;;;;;;12.14;87.89;95125.78;5096259;28;20261;-60
2022/04/12 05:32:00;;;;;;;8.47;5.47;;;;;;;12.70;83.89;95121.16;5114159;28;20207;-61
2022/04/12 05:34:25;;;;;;;7.63;4.80;;;;;;;12.98;81.76;95142.50;5096251;28;20207;-60
2022/04/12 05:36:50;;;;;;;8.93;4.63;;;;;;;13.47;78.82;95126.91;5096435;28;20282;-61
2022/04/12 05:39:15;;;;;;;7.77;4.70;;;;;;;14.19;76.08;95130.97;5096221;28;20187;-59
2022/04/12 05:41:41;;;;;;;9.63;5.30;;;;;;;14.42;72.98;95128.78;5096127;28;20183;-60
2022/04/12 05:44:07;;;;;;;9.53;5.13;;;;;;;14.78;70.17;95131.31;5096249;28;20189;-61
2022/04/12 05:46:32;;;;;;;7.47;4.53;;;;;;;15.06;68.21;95127.75;5096110;28;20188;-59
2022/04/12 05:48:57;;;;;;;9.27;4.83;;;;;;;15.63;65.82;95133.09;5095882;28;20194;-58
2022/04/12 05:51:23;;;;;;;10.47;4.73;;;;;;;16.03;64.33;95132.13;5095739;28;20448;-59
2022/04/12 05:53:48;;;;;;;6.43;4.60;;;;;;;16.23;61.41;95132.63;5095654;28;20624;-60
2022/04/12 05:56:13;;;;;;;8.73;4.60;;;;;;;15.76;62.06;95131.84;5095555;28;20188;-60
2022/04/12 05:58:40;;;;;;;7.20;4.67;;;;;;;16.21;59.99;95135.06;5095711;28;20198;-59
2022/04/12 06:01:06;;;;;;;10.30;5.33;;;;;;;16.72;59.30;95137.66;5095824;28;20187;-59
2022/04/12 06:03:31;;;;;;;12.97;4.80;;;;;;;16.82;57.66;95133.75;5095970;28;20191;-60
2022/04/12 06:05:56;;;;;;;7.83;4.77;;;;;;;17.53;56.02;95127.09;5095438;28;20188;-59
2022/04/12 06:08:22;;;;;;;9.50;4.90;;;;;;;18.02;53.11;95130.63;5095633;28;20183;-61
2022/04/12 06:10:47;;;;;;;7.40;4.90;;;;;;;17.70;53.11;95136.69;5095441;28;20196;-61
2022/04/12 06:13:12;;;;;;;11.13;5.30;;;;;;;18.27;51.60;95125.63;5094289;28;20219;-61
2022/04/12 06:15:38;;;;;;;11.43;5.13;;;;;;;18.69;50.81;95128.59;5095461;28;20187;-61
2022/04/12 06:18:03;;;;;;;10.07;5.40;;;;;;;18.75;50.17;95132.25;5095809;28;20180;-61
2022/04/12 06:20:29;;;;;;;10.23;4.93;;;;;;;18.57;48.86;95138.56;5095452;28;20327;-62
2022/04/12 06:22:54;;;;;;;8.13;4.73;;;;;;;18.49;49.82;95131.03;5095367;28;20183;-60
2022/04/12 06:25:20;;;;;;;8.97;5.17;;;;;;;19.07;50.95;95123.31;5095340;28;20256;-62
2022/04/12 06:27:50;;;;;;;11.37;4.97;;;;;;;19.39;48.28;95131.72;5095228;28;20188;-62
2022/04/12 06:30:17;;;;;;;9.10;5.07;;;;;;;19.15;49.50;95132.81;5095603;28;20228;-61
2022/04/12 06:32:44;;;;;;;8.20;5.50;;;;;;;19.75;48.50;95135.59;5095175;28;20291;-61
2022/04/12 06:35:11;;;;;;;6.80;4.50;;;;;;;20.04;48.05;95136.53;5094736;28;20184;-61
2022/04/12 06:37:39;;;;;;;7.27;4.53;;;;;;;20.72;45.68;95135.47;5095125;28;20194;-62
2022/04/12 06:40:06;;;;;;;5.33;4.40;;;;;;;21.51;42.33;95128.09;5095081;28;20216;-60
2022/04/12 06:42:32;;;;;;;5.37;4.07;;;;;;;21.29;41.70;95128.50;5095414;28;20180;-60
2022/04/12 06:44:57;;;;;;;4.47;4.07;;;;;;;21.47;40.65;95133.06;5095242;28;20261;-60
2022/04/12 06:47:23;;;;;;;4.60;4.20;;;;;;;20.67;42.73;95132.56;5095136;28;20183;-61
2022/04/12 06:49:50;;;;;;;5.77;4.10;;;;;;;20.48;41.98;95126.41;5094872;28;20187;-61
2022/04/12 06:52:18;;;;;;;5.77;3.93;;;;;;;21.02;40.70;95141.88;5094831;28;20235;-60
2022/04/12 06:54:44;;;;;;;5.27;4.03;;;;;;;22.44;38.96;95132.28;5094734;28;20199;-60
2022/04/12 06:57:09;;;;;;;6.57;4.10;;;;;;;23.49;36.59;95139.09;5094792;28;20184;-60
2022/04/12 06:59:35;;;;;;;4.60;4.20;;;;;;;24.46;35.78;95125.63;5095030;28;20210;-60
2022/04/12 07:02:01;;;;;;;7.00;4.30;;;;;;;23.69;35.95;95129.88;5095371;28;20232;-60
2022/04/12 07:04:28;;;;;;;5.90;4.17;;;;;;;24.45;35.44;95124.09;5095228;28;20187;-59
2022/04/12 07:06:54;;;;;;;6.60;4.40;;;;;;;24.92;35.04;95130.91;5095518;28;20194;-59
2022/04/12 07:09:20;;;;;;;4.40;4.00;;;;;;;24.92;34.09;95130.91;5095284;28;20195;-58
2022/04/12 07:11:50;;;;;;;4.90;4.00;;;;;;;25.11;33.77;95126.41;5094866;28;20184;-61
2022/04/12 07:14:15;;;;;;;5.27;4.43;;;;;;;25.46;33.55;95123.97;5094665;28;20180;-59
2022/04/12 07:16:41;;;;;;;5.97;3.83;;;;;;;25.57;32.69;95134.41;5094619;28;20213;-58
2022/04/12 07:19:06;;;;;;;5.67;4.30;;;;;;;26.93;31.68;95131.94;5094565;28;20240;-58
2022/04/12 07:21:32;;;;;;;4.13;3.73;;;;;;;26.58;31.33;95137.41;5094510;28;20233;-57
2022/04/12 07:24:00;;;;;;;6.27;3.60;;;;;;;26.58;30.79;95135.34;5094064;28;20211;-58
2022/04/12 07:26:26;;;;;;;3.93;3.47;;;;;;;26.71;30.68;95152.41;5094597;28;20204;-59
2022/04/12 07:28:52;;;;;;;6.70;3.70;;;;;;;27.27;30.21;95141.72;5094531;28;20194;-55
2022/04/12 07:31:17;;;;;;;6.07;3.80;;;;;;;26.71;29.57;95135.59;5094364;28;20247;-58
2022/04/12 07:33:43;;;;;;;8.33;3.53;;;;;;;27.16;29.40;95150.94;5095285;28;20188;-57
2022/04/12 07:36:08;;;;;;;5.03;3.40;;;;;;;27.86;28.26;95136.28;5095244;28;20187;-60
2022/04/12 07:38:33;;;;;;;4.10;3.70;;;;;;;28.23;28.19;95136.47;5095355;28;20278;-57
2022/04/12 07:40:59;;;;;;;5.80;4.30;;;;;;;28.68;28.50;95148.03;5095677;28;20196;-57
2022/04/12 07:43:24;;;;;;;4.43;3.50;;;;;;;29.55;26.96;95134.16;5095154;28;20208;-57
2022/04/12 07:45:49;;;;;;;4.30;3.90;;;;;;;29.56;26.60;95132.84;5095056;28;20236;-58
2022/04/12 07:48:15;;;;;;;4.00;3.37;;;;;;;29.21;27.09;95138.72;5095267;28;20187;-58
2022/04/12 07:50:40;;;;;;;4.50;3.50;;;;;;;29.98;26.05;95129.94;5095238;28;20528;-57
2022/04/12 07:53:06;;;;;;;7.13;3.90;;;;;;;30.80;25.39;95127.72;5095005;28;20586;-57
2022/04/12 07:55:31;;;;;;;5.50;3.40;;;;;;;31.28;24.92;95131.41;5094912;28;20573;-57
2022/04/12 07:57:57;;;;;;;4.47;3.33;;;;;;;29.74;25.82;95129.28;5095184;28;20536;-57
2022/04/12 08:00:22;;;;;;;4.17;3.60;;;;;;;28.51;27.21;95133.41;5095072;28;20210;-56
2022/04/12 08:02:48;;;;;;;4.37;3.57;;;;;;;27.63;28.74;95126.44;5094313;28;20196;-56
2022/04/12 08:05:14;;;;;;;4.40;3.10;;;;;;;27.44;28.11;95117.91;5094122;28;20632;-58
2022/04/12 08:07:44;;;;;;;4.10;3.30;;;;;;;27.76;28.56;95121.00;5094340;28;20282;-54
2022/04/12 08:10:10;;;;;;;3.47;2.97;;;;;;;27.18;27.96;95122.38;5093723;28;20507;-55
2022/04/12 08:12:35;;;;;;;3.60;3.30;;;;;;;25.76;29.90;95130.59;5094078;28;20215;-57
2022/04/12 08:15:02;;;;;;;4.30;3.10;;;;;;;25.74;30.37;95121.94;5094560;28;20184;-58
2022/04/12 08:17:27;;;;;;;3.40;3.10;;;;;;;27.22;28.74;95120.09;5113066;28;20183;-59
2022/04/12 08:19:53;;;;;;;5.17;2.70;;;;;;;27.12;28.18;95116.78;5094635;28;20186;-58
2022/04/12 08:22:18;;;;;;;6.20;2.70;;;;;;;27.79;27.85;95103.84;5094690;28;20653;-58
2022/04/12 08:24:43;;;;;;;3.10;2.80;;;;;;;28.15;27.43;95113.00;5094624;28;20207;-57
2022/04/12 08:27:09;;;;;;;3.20;2.70;;;;;;;26.92;27.57;95119.19;5094851;28;20180;-58
2022/04/12 08:29:34;;;;;;;2.50;2.30;;;;;;;27.68;27.28;95114.44;5094714;28;20210;-56
2022/04/12 08:31:59;;;;;;;2.70;2.47;;;;;;;28.33;26.18;95106.72;5094802;28;20558;-58
2022/04/12 08:34:25;;;;;;;3.30;2.43;;;;;;;29.21;25.29;95116.22;5094844;28;20237;-59
2022/04/12 08:36:50;;;;;;;3.23;2.70;;;;;;;28.37;24.96;95109.25;5097086;28;20632;-61
2022/04/12 08:39:15;;;;;;;4.47;2.60;;;;;;;27.51;25.89;95116.59;5097863;28;20278;-57
2022/04/12 08:41:41;;;;;;;3.37;2.33;;;;;;;28.14;26.35;95106.66;5097877;28;20184;-57
2022/04/12 08:44:07;;;;;;;4.87;2.43;;;;;;;28.68;25.66;95111.47;5097875;28;20203;-57
2022/04/12 08:46:35;;;;;;;4.20;2.27;;;;;;;27.07;26.69;95112.00;5098045;28;20253;-57
2022/04/12 08:49:01;;;;;;;3.47;2.30;;;;;;;27.39;27.13;95115.88;5098001;28;20267;-57
2022/04/12 08:51:28;;;;;;;3.27;2.60;;;;;;;26.09;27.89;95118.63;5097865;28;20208;-60
2022/04/12 08:53:56;;;;;;;4.30;2.53;;;;;;;26.61;28.21;95108.34;5097770;28;20196;-60
2022/04/12 08:56:22;;;;;;;4.07;2.70;;;;;;;27.85;26.84;95113.03;5097306;28;20183;-60
2022/04/12 08:58:48;;;;;;;2.93;2.63;;;;;;;28.52;25.90;95106.81;5096958;28;20700;-60
2022/04/12 09:01:13;;;;;;;3.17;2.60;;;;;;;27.36;27.10;95108.53;5096852;28;20270;-60
2022/04/12 09:03:39;;;;;;;4.03;2.50;;;;;;;26.96;28.43;95109.25;5096960;28;20204;-59
2022/04/12 09:06:04;;;;;;;3.23;2.93;;;;;;;27.54;27.90;95099.44;5114659;28;20184;-60
2022/04/12 09:08:31;;;;;;;4.27;3.00;;;;;;;28.48;26.99;95097.91;5096812;28;20215;-60
2022/04/12 09:10:59;;;;;;;3.87;2.70;;;;;;;28.40;27.03;95088.53;5096728;28;20204;-59
2022/04/12 09:13:24;;;;;;;2.63;2.00;;;;;;;27.04;27.25;95095.41;5096189;28;20571;-59
2022/04/12 09:15:50;;;;;;;2.87;2.13;;;;;;;26.77;26.51;95097.06;5096542;28;20180;-58
2022/04/12 09:18:39;;;;;;;2.30;2.10;;;;;;;27.68;26.57;95092.72;5096385;28;20554;-59
2022/04/12 09:21:18;;;;;;;3.03;2.10;;;;;;;26.27;27.24;95106.91;5096398;28;20291;-58
2022/04/12 09:23:49;;;;;;;2.30;2.10;;;;;;;27.39;26.66;95093.44;5096467;28;20211;-58
2022/04/12 09:26:20;;;;;;;2.33;2.13;;;;;;;27.37;26.20;95107.25;5096355;28;20200;-59
2022/04/12 09:28:46;;;;;;;2.23;2.00;;;;;;;27.15;27.25;95093.31;5096678;28;20330;-59
2022/04/12 09:31:13;;;;;;;2.57;2.20;;;;;;;27.46;26.63;95101.31;5096678;28;20270;-60
2022/04/12 09:33:40;;;;;;;3.30;2.00;;;;;;;27.68;25.90;95087.09;5096550;28;20247;-60
2022/04/12 09:36:06;;;;;;;5.67;2.30;;;;;;;28.80;25.82;95081.94;5096220;28;20195;-59
2022/04/12 09:38:33;;;;;;;2.30;2.10;;;;;;;28.26;25.34;95074.34;5114473;28;20211;-59
2022/04/12 09:41:17;;;;;;;3.33;2.00;;;;;;;27.63;26.32;95085.13;5095804;28;20236;-60
2022/04/12 09:44:18;;;;;;;4.53;2.20;;;;;;;28.05;26.54;95081.69;5096084;28;20359;-61
2022/04/12 09:46:44;;;;;;;3.40;2.17;;;;;;;27.19;27.12;95085.41;4995165;28;20195;-58
2022/04/12 09:49:10;;;;;;;2.33;2.10;;;;;;;26.47;28.08;95076.53;5075450;28;20200;-59
2022/04/12 09:51:36;;;;;;;2.77;2.07;;;;;;;26.51;28.13;95065.81;5096351;28;20279;-60
2022/04/12 09:54:02;;;;;;;2.80;2.00;;;;;;;26.95;27.57;95071.25;5095808;28;20188;-60
2022/04/12 09:56:29;;;;;;;1.87;1.77;;;;;;;27.39;27.43;95056.97;5095940;28;20200;-59
2022/04/12 09:59:00;;;;;;;2.33;2.03;;;;;;;28.40;26.48;95061.16;5095870;28;20222;-59
2022/04/12 10:01:27;;;;;;;2.50;1.90;;;;;;;28.43;25.60;95050.97;5095914;28;20196;-60
2022/04/12 10:03:53;;;;;;;2.07;1.63;;;;;;;26.93;26.93;95059.03;5095527;28;20207;-59
2022/04/12 10:06:24;;;;;;;2.73;1.70;;;;;;;26.75;27.16;95037.97;5095569;28;20191;-59
2022/04/12 10:09:17;;;;;;;2.80;1.90;;;;;;;28.84;25.07;95037.41;5095777;28;20191;-59
2022/04/12 10:11:43;;;;;;;2.77;1.70;;;;;;;27.93;25.88;95031.78;5091870;28;20226;-59
2022/04/12 10:14:10;;;;;;;2.97;1.80;;;;;;;27.16;26.32;95029.56;5095664;28;20184;-61
2022/04/12 10:16:36;;;;;;;2.27;1.60;;;;;;;28.03;25.44;95033.72;5095787;28;20531;-59
2022/04/12 10:19:02;;;;;;;3.73;1.70;;;;;;;27.81;25.09;95028.31;5095571;28;20175;-60
2022/04/12 10:21:28;;;;;;;2.87;1.43;;;;;;;28.16;24.78;95030.28;5095836;28;20192;-58
2022/04/12 10:23:56;;;;;;;2.07;1.43;;;;;;;27.81;24.94;95017.06;5095137;28;20656;-59
2022/04/12 10:26:24;;;;;;;2.00;1.43;;;;;;;29.83;22.66;95013.41;5094997;28;20204;-58
2022/04/12 10:28:55;;;;;;;1.97;1.50;;;;;;;28.29;24.21;95017.09;5095584;28;20215;-58
2022/04/12 10:31:23;;;;;;;2.07;1.80;;;;;;;27.97;24.89;95013.34;5095393;28;20264;-59
2022/04/12 10:34:14;;;;;;;2.30;1.80;;;;;;;28.38;24.66;95013.16;5095656;28;20192;-58
2022/04/12 10:36:58;;;;;;;2.70;1.73;;;;;;;27.29;25.07;95010.91;5095902;28;20199;-58
2022/04/12 10:39:46;;;;;;;2.03;1.37;;;;;;;27.38;25.00;95013.38;5095357;28;20324;-58
2022/04/12 10:42:16;;;;;;;2.87;1.63;;;;;;;27.73;24.46;95012.56;5095519;28;20200;-59
2022/04/12 10:44:47;;;;;;;1.67;1.40;;;;;;;27.55;24.86;94999.97;5113517;28;20195;-60
2022/04/12 10:47:45;;;;;;;2.83;1.70;;;;;;;27.16;24.92;95012.72;5095284;28;20179;-59
2022/04/12 10:50:13;;;;;;;3.13;1.83;;;;;;;27.10;25.27;94993.13;5075451;28;20214;-59
2022/04/12 10:52:42;;;;;;;1.40;1.30;;;;;;;26.38;25.58;95001.19;5094810;28;20184;-59
2022/04/12 10:55:12;;;;;;;1.83;1.47;;;;;;;26.95;24.88;94992.72;5095105;28;20228;-60
2022/04/12 10:57:38;;;;;;;1.80;1.30;;;;;;;28.59;23.85;94999.38;5095131;28;20199;-57
2022/04/12 11:00:03;;;;;;;2.73;1.50;;;;;;;28.37;23.49;95005.25;5094268;28;20180;-59
2022/04/12 11:02:41;;;;;;;2.23;1.40;;;;;;;27.63;23.98;95006.53;5094933;28;20212;-59
2022/04/12 11:05:27;;;;;;;1.67;1.37;;;;;;;28.33;23.15;95000.69;5094962;28;20325;-57
2022/04/12 11:07:53;;;;;;;2.03;1.70;;;;;;;29.83;22.62;94999.31;5094693;28;20656;-60
2022/04/12 11:10:20;;;;;;;2.57;1.60;;;;;;;28.19;23.05;95007.50;5094874;28;20195;-58
2022/04/12 11:12:47;;;;;;;2.63;1.50;;;;;;;27.60;24.60;94990.72;5094762;28;20278;-58
2022/04/12 11:15:25;;;;;;;1.70;1.60;;;;;;;28.63;24.11;94992.19;5094654;28;20214;-57
2022/04/12 11:18:09;;;;;;;2.03;1.50;;;;;;;27.91;23.79;94981.00;5094851;28;20203;-61
2022/04/12 11:20:36;;;;;;;2.27;1.73;;;;;;;27.84;24.57;94985.16;5094827;28;20403;-58
2022/04/12 11:23:10;;;;;;;2.90;1.60;;;;;;;28.51;23.59;94981.63;5094761;28;20294;-58
2022/04/12 11:25:46;;;;;;;3.37;1.60;;;;;;;28.30;23.79;94996.13;5094454;28;20216;-58
2022/04/12 11:28:17;;;;;;;1.93;1.60;;;;;;;26.37;25.78;94982.09;5078102;28;20620;-59
2022/04/12 11:30:53;;;;;;;2.27;1.40;;;;;;;26.75;25.86;94973.50;5094473;28;20182;-59
2022/04/12 11:33:22;;;;;;;2.73;1.97;;;;;;;25.05;28.00;94983.06;5094373;28;20183;-58
2022/04/12 11:35:49;;;;;;;4.23;1.57;;;;;;;24.25;29.24;94979.06;5094251;28;20267;-60